LFMI

Istres Le Tubé / Istres Air Base (BA 125) Airport

Istres/Le Tubé, France
METAR LFMI 231000Z AUTO 32015KT CAVOK 29/15 Q1019 NOSIG
Observed Flight Rules
Sep-23 @ 10:00 UTC (29 minutes ago) Visual Flight Rules
Wind Visibility Clouds
320° at 15 knots 10,000+ meters
Temperatures Readings
Current 29°C / 84°F
Dewpoint 15°C / 59°F
Humidity 43%
Altimeter 30.09" Hg
Pressure 1019 hPa
Elevation 24
METAR LFMI 231000Z AUTO 32015KT CAVOK 29/15 Q1019 NOSIG
Observed Flight Rules
Sep-23 @ 10:00 UTC
(29 minutes ago)
VFR
Wind Visibility
320° at 15 knots 10,000+ meters
Clouds
Temperature Dewpoint
29°C / 84°F 15°C / 59°F
Humidity Altimeter Pressure
43% 30.09" Hg 1019 hPa